Time;durP1;ratioP1;P1;durP2;ratioP2;P2;SDS_P1;SDS_P2;PMS_P1;PMS_P2;Temp;Humidity;BMP_temperature;BMP_pressure;BME280_temperature;BME280_humidity;BME280_pressure;Samples;Min_cycle;Max_cycle;Signal;HPM_P1;HPM_P2
2024/05/03 00:00:14;;;;;;;;;;;21.70;54.10;;;;;;5460265;26;1350;-90
2024/05/03 00:02:40;;;;;;;;;;;21.70;54.10;;;;;;5458405;26;1056;-91
2024/05/03 00:05:05;;;;;;;;;;;21.70;54.00;;;;;;5426838;26;1228;-90
2024/05/03 00:07:30;;;;;;;;;;;21.70;54.00;;;;;;5458456;26;1867;-91
2024/05/03 00:09:56;;;;;;;;;;;21.70;53.90;;;;;;5458484;26;900;-90
2024/05/03 00:12:21;;;;;;;;;;;21.70;53.80;;;;;;5460238;26;1481;-91
2024/05/03 00:14:46;;;;;;;;;;;21.70;53.80;;;;;;5458447;26;1081;-90
2024/05/03 00:17:12;;;;;;;;;;;21.70;53.80;;;;;;5457980;26;1496;-92
2024/05/03 00:19:37;;;;;;;;;;;21.70;53.90;;;;;;5426419;26;1213;-91
2024/05/03 00:22:02;;;;;;;;;;;21.70;53.80;;;;;;5458253;26;1045;-92
2024/05/03 00:24:28;;;;;;;;;;;21.70;53.80;;;;;;5426276;26;1233;-92
2024/05/03 00:26:53;;;;;;;;;;;21.70;53.70;;;;;;5457914;26;1817;-92
2024/05/03 00:29:19;;;;;;;;;;;21.70;53.80;;;;;;5457699;26;953;-91
2024/05/03 00:31:44;;;;;;;;;;;21.70;53.60;;;;;;5457614;26;1058;-92
2024/05/03 00:34:09;;;;;;;;;;;21.70;53.70;;;;;;5486040;26;1389;-91
2024/05/03 00:36:35;;;;;;;;;;;21.70;53.70;;;;;;5494063;26;1117;-92
2024/05/03 00:39:00;;;;;;;;;;;21.70;53.60;;;;;;5493871;26;956;-91
2024/05/03 00:41:25;;;;;;;;;;;21.70;53.60;;;;;;5494162;26;887;-92
2024/05/03 00:43:51;;;;;;;;;;;21.70;53.50;;;;;;5481654;26;1564;-91
2024/05/03 00:46:16;;;;;;;;;;;21.70;53.50;;;;;;5457580;26;1350;-91
2024/05/03 00:48:41;;;;;;;;;;;21.60;53.50;;;;;;5426010;26;1821;-92
2024/05/03 00:51:08;;;;;;;;;;;21.70;53.50;;;;;;5456837;26;1092;-91
2024/05/03 00:53:35;;;;;;;;;;;21.70;53.20;;;;;;5425056;26;1292;-92
2024/05/03 00:56:00;;;;;;;;;;;21.60;53.20;;;;;;5422620;26;1578;-91
2024/05/03 00:58:25;;;;;;;;;;;21.70;53.20;;;;;;5425323;26;1166;-92
2024/05/03 01:00:51;;;;;;;;;;;21.60;53.70;;;;;;5457317;26;1157;-91
2024/05/03 01:03:16;;;;;;;;;;;21.60;53.00;;;;;;5457561;26;945;-91
2024/05/03 01:05:41;;;;;;;;;;;21.70;53.00;;;;;;5409344;26;1534;-91
2024/05/03 01:08:07;;;;;;;;;;;21.70;52.90;;;;;;5420990;26;1863;-92
2024/05/03 01:10:32;;;;;;;;;;;21.70;53.00;;;;;;5390107;26;1232;-92
2024/05/03 01:12:57;;;;;;;;;;;21.70;53.00;;;;;;5421263;26;878;-92
2024/05/03 01:15:23;;;;;;;;;;;21.60;52.80;;;;;;5424389;26;1453;-92
2024/05/03 01:17:48;;;;;;;;;;;21.60;52.80;;;;;;5461629;26;1213;-91
2024/05/03 01:20:13;;;;;;;;;;;21.70;52.80;;;;;;5493386;26;1158;-92
2024/05/03 01:22:39;;;;;;;;;;;21.60;52.70;;;;;;5493480;26;1093;-92
2024/05/03 01:25:04;;;;;;;;;;;21.60;52.70;;;;;;5493579;26;1041;-92
2024/05/03 01:27:30;;;;;;;;;;;21.60;52.60;;;;;;5458292;26;1872;-91
2024/05/03 01:29:55;;;;;;;;;;;21.70;52.70;;;;;;5493216;26;989;-92
2024/05/03 01:32:20;;;;;;;;;;;21.70;52.70;;;;;;5493253;26;862;-91
2024/05/03 01:34:46;;;;;;;;;;;21.70;52.60;;;;;;5493158;26;1012;-91
2024/05/03 01:37:11;;;;;;;;;;;21.60;52.70;;;;;;5457904;26;1449;-91
2024/05/03 01:39:36;;;;;;;;;;;21.60;52.50;;;;;;5461074;26;1215;-91
2024/05/03 01:42:02;;;;;;;;;;;21.60;52.60;;;;;;5493192;26;1033;-91
2024/05/03 01:44:27;;;;;;;;;;;21.60;52.50;;;;;;5493224;26;921;-92
2024/05/03 01:46:52;;;;;;;;;;;21.60;52.60;;;;;;5492958;26;1816;-91
2024/05/03 01:49:18;;;;;;;;;;;21.60;52.60;;;;;;5439479;26;1620;-91
2024/05/03 01:51:43;;;;;;;;;;;21.60;52.30;;;;;;5420546;26;1037;-92
2024/05/03 01:54:08;;;;;;;;;;;21.60;52.30;;;;;;5420437;26;1022;-91
2024/05/03 01:56:34;;;;;;;;;;;21.60;52.50;;;;;;5420264;26;868;-91
2024/05/03 01:58:59;;;;;;;;;;;21.60;52.50;;;;;;5435863;26;1406;-91
2024/05/03 02:01:24;;;;;;;;;;;21.60;52.30;;;;;;5460645;26;1125;-92
2024/05/03 02:03:50;;;;;;;;;;;21.60;52.20;;;;;;5495199;26;1054;-92
2024/05/03 02:06:15;;;;;;;;;;;21.60;52.30;;;;;;5497198;26;903;-91
2024/05/03 02:08:41;;;;;;;;;;;21.60;52.00;;;;;;5464426;26;1836;-91
2024/05/03 02:11:06;;;;;;;;;;;21.60;52.20;;;;;;5493570;26;1366;-92
2024/05/03 02:13:31;;;;;;;;;;;21.60;52.30;;;;;;5496359;26;1062;-91
2024/05/03 02:15:57;;;;;;;;;;;21.60;52.20;;;;;;5463989;26;1320;-92
2024/05/03 02:18:22;;;;;;;;;;;21.60;52.30;;;;;;5496263;26;958;-91
2024/05/03 02:20:47;;;;;;;;;;;21.60;52.20;;;;;;5493270;26;1697;-92
2024/05/03 02:23:13;;;;;;;;;;;21.60;52.20;;;;;;5495879;26;1238;-91
2024/05/03 02:25:38;;;;;;;;;;;21.60;52.10;;;;;;5495788;26;1080;-91
2024/05/03 02:28:03;;;;;;;;;;;21.60;52.00;;;;;;5496097;26;1851;-92
2024/05/03 02:30:29;;;;;;;;;;;21.60;52.20;;;;;;5463039;26;1294;-91
2024/05/03 02:32:54;;;;;;;;;;;21.60;52.20;;;;;;5425375;26;1383;-92
2024/05/03 02:35:19;;;;;;;;;;;21.60;52.20;;;;;;5427793;26;1173;-91
2024/05/03 02:37:45;;;;;;;;;;;21.60;52.00;;;;;;5459848;26;920;-91
2024/05/03 02:40:10;;;;;;;;;;;21.50;52.00;;;;;;5400261;26;1605;-92
2024/05/03 02:42:35;;;;;;;;;;;21.60;52.10;;;;;;5462683;26;1470;-92
2024/05/03 02:45:01;;;;;;;;;;;21.60;52.10;;;;;;5440123;26;1503;-91
2024/05/03 02:47:28;;;;;;;;;;;21.60;52.00;;;;;;5423522;26;1859;-92
2024/05/03 02:49:53;;;;;;;;;;;21.60;52.00;;;;;;5423325;26;899;-91
2024/05/03 02:52:18;;;;;;;;;;;21.60;52.20;;;;;;5433200;26;1623;-91
2024/05/03 02:54:44;;;;;;;;;;;21.60;52.20;;;;;;5459397;26;1115;-92
2024/05/03 02:57:09;;;;;;;;;;;21.60;52.10;;;;;;5459119;26;1041;-92
2024/05/03 02:59:34;;;;;;;;;;;21.60;52.10;;;;;;5427664;26;1277;-92
2024/05/03 03:02:00;;;;;;;;;;;21.60;52.00;;;;;;5427719;26;1358;-92
2024/05/03 03:04:25;;;;;;;;;;;21.50;51.90;;;;;;5460751;26;1408;-92
2024/05/03 03:06:50;;;;;;;;;;;21.50;51.90;;;;;;5459617;26;1849;-92
2024/05/03 03:09:16;;;;;;;;;;;21.60;52.10;;;;;;5428436;26;1233;-93
2024/05/03 03:11:42;;;;;;;;;;;21.50;51.90;;;;;;5428020;26;1166;-92
2024/05/03 03:14:07;;;;;;;;;;;21.50;51.80;;;;;;5476226;26;1516;-92
2024/05/03 03:16:35;;;;;;;;;;;21.60;52.00;;;;;;5495765;26;1056;-92
2024/05/03 03:19:00;;;;;;;;;;;21.50;51.90;;;;;;5495901;26;1208;-92
2024/05/03 03:21:26;;;;;;;;;;;21.60;51.90;;;;;;5495816;26;1037;-92
2024/05/03 03:23:51;;;;;;;;;;;21.50;51.80;;;;;;5461152;26;1426;-92
2024/05/03 03:26:17;;;;;;;;;;;21.60;51.90;;;;;;5427984;26;1237;-92
2024/05/03 03:28:46;;;;;;;;;;;21.60;51.90;;;;;;5428221;26;1830;-92
2024/05/03 03:31:14;;;;;;;;;;;21.50;51.80;;;;;;5428684;26;1182;-91
2024/05/03 03:33:39;;;;;;;;;;;21.50;51.70;;;;;;5459524;26;835;-91
2024/05/03 03:36:05;;;;;;;;;;;21.60;51.90;;;;;;5483143;26;1528;-91
2024/05/03 03:38:30;;;;;;;;;;;21.50;51.80;;;;;;5495830;26;850;-92
2024/05/03 03:40:55;;;;;;;;;;;21.50;51.70;;;;;;5495863;26;846;-91
2024/05/03 03:43:21;;;;;;;;;;;21.50;51.70;;;;;;5463670;26;1180;-92
2024/05/03 03:45:47;;;;;;;;;;;21.50;51.80;;;;;;5459914;26;1454;-92
2024/05/03 03:48:12;;;;;;;;;;;21.50;51.70;;;;;;5464056;26;1849;-92
2024/05/03 03:50:37;;;;;;;;;;;21.50;51.80;;;;;;5464384;26;1181;-91
2024/05/03 03:53:03;;;;;;;;;;;21.50;51.70;;;;;;5495677;26;1049;-91
2024/05/03 03:55:28;;;;;;;;;;;21.50;51.70;;;;;;5495395;26;885;-92
2024/05/03 03:57:53;;;;;;;;;;;21.50;51.60;;;;;;5495286;26;1493;-91
2024/05/03 04:00:19;;;;;;;;;;;21.50;51.60;;;;;;5495055;26;1080;-91
2024/05/03 04:02:44;;;;;;;;;;;21.50;51.60;;;;;;5494746;26;1303;-92
2024/05/03 04:05:10;;;;;;;;;;;21.50;51.60;;;;;;5463370;26;1325;-92
2024/05/03 04:07:35;;;;;;;;;;;21.50;51.50;;;;;;5481398;26;1846;-91
2024/05/03 04:10:00;;;;;;;;;;;21.50;51.60;;;;;;5458765;26;889;-92
2024/05/03 04:12:26;;;;;;;;;;;21.50;51.60;;;;;;5458327;26;912;-92
2024/05/03 04:14:51;;;;;;;;;;;21.50;51.50;;;;;;5458875;26;970;-92
2024/05/03 04:17:16;;;;;;;;;;;21.50;51.50;;;;;;5427394;26;1209;-92
2024/05/03 04:19:42;;;;;;;;;;;21.50;51.50;;;;;;5467409;26;1599;-91
2024/05/03 04:22:07;;;;;;;;;;;21.50;51.60;;;;;;5458256;26;1104;-92
2024/05/03 04:24:32;;;;;;;;;;;21.50;51.50;;;;;;5458324;26;882;-92
2024/05/03 04:26:58;;;;;;;;;;;21.50;51.50;;;;;;5427153;26;1843;-92
2024/05/03 04:29:23;;;;;;;;;;;21.50;51.50;;;;;;5425317;26;1564;-92
2024/05/03 04:31:48;;;;;;;;;;;21.50;51.30;;;;;;5484917;26;1401;-92
2024/05/03 04:34:14;;;;;;;;;;;21.50;51.40;;;;;;5466010;26;1229;-92
2024/05/03 04:36:40;;;;;;;;;;;21.50;51.50;;;;;;5463492;26;1315;-91
2024/05/03 04:39:05;;;;;;;;;;;21.60;51.60;;;;;;5495482;26;834;-90
2024/05/03 04:41:32;;;;;;;;;;;21.50;52.20;;;;;;5437554;26;1316;-89
2024/05/03 04:43:58;;;;;;;;;;;21.50;52.00;;;;;;5391845;26;1179;-90
2024/05/03 04:46:23;;;;;;;;;;;21.50;51.90;;;;;;5422665;26;886;-91
2024/05/03 04:48:49;;;;;;;;;;;21.50;51.80;;;;;;5391852;26;1837;-91
2024/05/03 04:51:14;;;;;;;;;;;21.50;52.50;;;;;;5422525;26;932;-90
2024/05/03 04:53:39;;;;;;;;;;;21.50;53.80;;;;;;5423257;26;1486;-91
2024/05/03 04:56:05;;;;;;;;;;;21.50;54.50;;;;;;5458796;26;954;-92
2024/05/03 04:58:30;;;;;;;;;;;21.50;56.40;;;;;;5458693;26;902;-91
2024/05/03 05:00:55;;;;;;;;;;;21.50;57.60;;;;;;5458552;26;1011;-91
2024/05/03 05:03:21;;;;;;;;;;;21.50;58.00;;;;;;5458588;26;1519;-90
2024/05/03 05:05:46;;;;;;;;;;;21.50;58.10;;;;;;5458174;26;1116;-92
2024/05/03 05:08:11;;;;;;;;;;;21.50;58.50;;;;;;5426372;26;1851;-91
2024/05/03 05:10:37;;;;;;;;;;;21.50;57.30;;;;;;5458249;26;929;-91
2024/05/03 05:13:02;;;;;;;;;;;21.50;56.80;;;;;;5460027;26;1412;-91
2024/05/03 05:15:28;;;;;;;;;;;21.50;56.70;;;;;;5420936;26;1569;-93
2024/05/03 05:17:53;;;;;;;;;;;21.50;56.10;;;;;;5422068;26;909;-92
2024/05/03 05:20:23;;;;;;;;;;;21.50;55.40;;;;;;5422089;26;1171;-91
2024/05/03 05:22:49;;;;;;;;;;;21.50;55.30;;;;;;5420291;26;965;-93
2024/05/03 05:25:14;;;;;;;;;;;21.50;55.10;;;;;;5422288;26;1037;-92
2024/05/03 05:27:40;;;;;;;;;;;21.50;54.90;;;;;;5422931;26;1852;-91
2024/05/03 05:30:05;;;;;;;;;;;21.50;54.80;;;;;;5420784;26;1190;-91
2024/05/03 05:32:30;;;;;;;;;;;21.50;54.60;;;;;;5422577;26;892;-92
2024/05/03 05:34:56;;;;;;;;;;;21.50;54.50;;;;;;5457995;26;912;-92
2024/05/03 05:37:21;;;;;;;;;;;21.50;54.40;;;;;;5458284;26;927;-92
2024/05/03 05:39:46;;;;;;;;;;;21.50;54.20;;;;;;5461342;26;1096;-92
2024/05/03 05:42:12;;;;;;;;;;;21.50;54.20;;;;;;5461841;26;856;-91
2024/05/03 05:44:37;;;;;;;;;;;21.50;54.10;;;;;;5429187;26;1244;-91
2024/05/03 05:47:03;;;;;;;;;;;21.50;54.00;;;;;;5429693;26;1802;-90
2024/05/03 05:49:28;;;;;;;;;;;21.50;53.90;;;;;;5429085;26;1138;-91
2024/05/03 05:51:53;;;;;;;;;;;21.50;53.90;;;;;;5460833;26;1089;-91
2024/05/03 05:54:20;;;;;;;;;;;21.50;53.90;;;;;;5460494;26;892;-91
2024/05/03 05:56:47;;;;;;;;;;;21.50;53.90;;;;;;5429286;26;1237;-92
2024/05/03 05:59:12;;;;;;;;;;;21.50;53.90;;;;;;5460599;26;850;-91
2024/05/03 06:01:40;;;;;;;;;;;21.50;53.90;;;;;;5459905;26;1129;-90
2024/05/03 06:04:05;;;;;;;;;;;21.50;53.90;;;;;;5428967;26;1213;-91
2024/05/03 06:06:31;;;;;;;;;;;21.50;53.90;;;;;;5428928;26;1809;-90
2024/05/03 06:08:57;;;;;;;;;;;21.50;54.00;;;;;;5460833;26;944;-91
2024/05/03 06:11:22;;;;;;;;;;;21.50;53.90;;;;;;5428984;26;1229;-91
2024/05/03 06:13:48;;;;;;;;;;;21.50;53.90;;;;;;5460708;26;862;-90
2024/05/03 06:16:16;;;;;;;;;;;21.50;53.90;;;;;;5428695;26;1221;-90
2024/05/03 06:18:42;;;;;;;;;;;21.50;53.90;;;;;;5427779;26;1275;-90
2024/05/03 06:21:07;;;;;;;;;;;21.50;53.90;;;;;;5459558;26;1061;-90
2024/05/03 06:23:34;;;;;;;;;;;21.50;53.80;;;;;;5459773;26;894;-90
2024/05/03 06:25:59;;;;;;;;;;;21.50;53.80;;;;;;5427190;26;1433;-90
2024/05/03 06:28:26;;;;;;;;;;;21.50;53.80;;;;;;5460073;26;1813;-90
2024/05/03 06:30:51;;;;;;;;;;;21.50;53.80;;;;;;5429556;26;1185;-90
2024/05/03 06:33:17;;;;;;;;;;;21.50;53.90;;;;;;5460823;26;939;-90
2024/05/03 06:35:42;;;;;;;;;;;21.50;53.90;;;;;;5460138;26;839;-91
2024/05/03 06:38:08;;;;;;;;;;;21.50;53.90;;;;;;5460381;26;987;-91
2024/05/03 06:40:33;;;;;;;;;;;21.50;53.90;;;;;;5460553;26;879;-90
2024/05/03 06:43:03;;;;;;;;;;;21.50;53.90;;;;;;5428447;26;1182;-91
2024/05/03 06:45:28;;;;;;;;;;;21.50;53.90;;;;;;5428293;26;1226;-90
2024/05/03 06:47:53;;;;;;;;;;;21.50;53.70;;;;;;5459723;26;1809;-91
2024/05/03 06:50:19;;;;;;;;;;;21.50;53.70;;;;;;5458686;26;1005;-90
2024/05/03 06:52:44;;;;;;;;;;;21.50;53.60;;;;;;5459977;26;854;-91
2024/05/03 06:55:10;;;;;;;;;;;21.50;53.50;;;;;;5428086;26;1227;-91
2024/05/03 06:57:35;;;;;;;;;;;21.50;53.60;;;;;;5460220;26;1040;-91
2024/05/03 07:00:00;;;;;;;;;;;21.50;53.50;;;;;;5460000;26;1078;-90
2024/05/03 07:02:26;;;;;;;;;;;21.50;53.50;;;;;;5459146;26;1146;-91
2024/05/03 07:04:51;;;;;;;;;;;21.50;53.50;;;;;;5459178;26;914;-91
2024/05/03 07:07:17;;;;;;;;;;;21.50;53.50;;;;;;5427952;26;1848;-91
2024/05/03 07:09:43;;;;;;;;;;;21.50;53.40;;;;;;5459529;26;914;-91
2024/05/03 07:12:08;;;;;;;;;;;21.50;53.40;;;;;;5459820;26;937;-91
2024/05/03 07:14:35;;;;;;;;;;;21.50;53.30;;;;;;5459453;26;1085;-90
2024/05/03 07:17:00;;;;;;;;;;;21.50;53.30;;;;;;5427759;26;1296;-91
2024/05/03 07:19:26;;;;;;;;;;;21.50;53.30;;;;;;5427557;26;1193;-91
2024/05/03 07:21:51;;;;;;;;;;;21.50;53.20;;;;;;5459037;26;883;-91
2024/05/03 07:24:16;;;;;;;;;;;21.50;53.20;;;;;;5427899;26;1265;-91
2024/05/03 07:26:42;;;;;;;;;;;21.50;53.20;;;;;;5458732;26;1848;-91
2024/05/03 07:29:07;;;;;;;;;;;21.50;53.10;;;;;;5427581;26;1217;-91
2024/05/03 07:31:34;;;;;;;;;;;21.50;53.10;;;;;;5460395;26;946;-91
2024/05/03 07:33:59;;;;;;;;;;;21.50;53.10;;;;;;5428589;26;1324;-90
2024/05/03 07:36:25;;;;;;;;;;;21.50;53.70;;;;;;5427668;26;1281;-90
2024/05/03 07:38:50;;;;;;;;;;;21.50;53.00;;;;;;5429726;26;1441;-91
2024/05/03 07:41:15;;;;;;;;;;;21.50;53.00;;;;;;5430460;26;1256;-91
2024/05/03 07:43:41;;;;;;;;;;;21.50;53.00;;;;;;5429527;26;1197;-91
2024/05/03 07:46:06;;;;;;;;;;;21.50;52.90;;;;;;5464052;26;851;-91
2024/05/03 07:48:31;;;;;;;;;;;21.50;52.80;;;;;;5465162;26;1817;-91
2024/05/03 07:50:57;;;;;;;;;;;21.50;52.70;;;;;;5469973;26;901;-90
2024/05/03 07:53:22;;;;;;;;;;;21.50;52.70;;;;;;5450524;26;1166;-90
2024/05/03 07:55:48;;;;;;;;;;;21.50;52.70;;;;;;5480835;26;964;-90
2024/05/03 07:58:13;;;;;;;;;;;21.60;52.80;;;;;;5480825;26;1041;-91
2024/05/03 08:00:38;;;;;;;;;;;21.60;52.90;;;;;;5449814;26;1051;-90
2024/05/03 08:03:04;;;;;;;;;;;21.60;52.70;;;;;;5480625;26;1106;-92
2024/05/03 08:05:29;;;;;;;;;;;21.50;52.50;;;;;;5480761;26;846;-87
2024/05/03 08:07:54;;;;;;;;;;;21.60;52.60;;;;;;5450299;26;1844;-89
2024/05/03 08:10:20;;;;;;;;;;;21.60;52.80;;;;;;5450150;26;1209;-87
2024/05/03 08:12:46;;;;;;;;;;;21.60;52.40;;;;;;5450170;26;1202;-90
2024/05/03 08:15:11;;;;;;;;;;;21.60;52.70;;;;;;5450320;26;1161;-90
2024/05/03 08:17:37;;;;;;;;;;;21.60;52.50;;;;;;5480411;26;1040;-90
2024/05/03 08:20:02;;;;;;;;;;;21.60;52.50;;;;;;5449337;26;1213;-91
2024/05/03 08:22:32;;;;;;;;;;;21.60;52.60;;;;;;5438833;26;1295;-90
2024/05/03 08:24:57;;;;;;;;;;;21.60;52.30;;;;;;5437456;26;1286;-90
2024/05/03 08:27:22;;;;;;;;;;;21.60;52.20;;;;;;5466430;26;1805;-91
2024/05/03 08:29:48;;;;;;;;;;;21.60;52.30;;;;;;5426904;26;1215;-90
2024/05/03 08:32:14;;;;;;;;;;;21.60;52.00;;;;;;5427430;26;1229;-91
2024/05/03 08:34:39;;;;;;;;;;;21.50;52.00;;;;;;5458400;26;868;-90
2024/05/03 08:37:05;;;;;;;;;;;21.60;52.40;;;;;;5458418;26;920;-91
2024/05/03 08:39:30;;;;;;;;;;;21.60;52.10;;;;;;5458515;26;1245;-91
2024/05/03 08:41:55;;;;;;;;;;;21.60;52.30;;;;;;5458951;26;1304;-91
2024/05/03 08:44:22;;;;;;;;;;;21.60;52.10;;;;;;5429327;26;1217;-90
2024/05/03 08:46:47;;;;;;;;;;;21.60;52.00;;;;;;5459866;26;1809;-91
2024/05/03 08:49:12;;;;;;;;;;;21.70;52.30;;;;;;5428013;26;1277;-90
2024/05/03 08:51:38;;;;;;;;;;;21.70;52.20;;;;;;5427685;26;1208;-91
2024/05/03 08:54:03;;;;;;;;;;;21.60;51.90;;;;;;5459820;26;923;-91
2024/05/03 08:56:29;;;;;;;;;;;21.70;52.00;;;;;;5464180;26;1084;-91
2024/05/03 08:58:54;;;;;;;;;;;21.70;51.70;;;;;;5428147;26;1162;-91
2024/05/03 09:01:20;;;;;;;;;;;21.70;51.80;;;;;;5428049;26;1274;-91
2024/05/03 09:03:46;;;;;;;;;;;21.70;51.70;;;;;;5466123;26;1100;-91
2024/05/03 09:06:13;;;;;;;;;;;21.70;51.80;;;;;;5469299;26;856;-91
2024/05/03 09:08:38;;;;;;;;;;;21.70;51.70;;;;;;5470680;26;1820;-92
2024/05/03 09:11:04;;;;;;;;;;;21.70;51.70;;;;;;5469538;26;1064;-91
2024/05/03 09:13:29;;;;;;;;;;;21.70;51.60;;;;;;5467201;26;1069;-91
2024/05/03 09:15:55;;;;;;;;;;;21.70;51.30;;;;;;5468254;26;902;-91
2024/05/03 09:18:20;;;;;;;;;;;21.70;51.60;;;;;;5469021;26;903;-90
2024/05/03 09:20:45;;;;;;;;;;;21.70;51.50;;;;;;5469324;26;1189;-91
2024/05/03 09:23:11;;;;;;;;;;;21.70;51.00;;;;;;5468799;26;1089;-91
2024/05/03 09:25:40;;;;;;;;;;;21.70;51.40;;;;;;5469912;26;972;-90
2024/05/03 09:28:05;;;;;;;;;;;21.70;51.40;;;;;;5469031;26;1821;-91
2024/05/03 09:30:31;;;;;;;;;;;21.70;51.40;;;;;;5467714;26;1135;-91
2024/05/03 09:32:56;;;;;;;;;;;21.70;51.10;;;;;;5436346;26;1162;-91
2024/05/03 09:35:21;;;;;;;;;;;21.70;51.20;;;;;;5467872;26;1045;-91
2024/05/03 09:37:47;;;;;;;;;;;21.70;51.20;;;;;;5467352;26;866;-92
2024/05/03 09:40:12;;;;;;;;;;;21.70;51.10;;;;;;5468919;26;1105;-92
2024/05/03 09:42:37;;;;;;;;;;;21.70;51.20;;;;;;5469473;26;924;-91
2024/05/03 09:45:03;;;;;;;;;;;21.70;51.00;;;;;;5469001;26;1096;-91
2024/05/03 09:47:28;;;;;;;;;;;21.70;51.20;;;;;;5467904;26;1822;-91
2024/05/03 09:49:53;;;;;;;;;;;21.70;51.00;;;;;;5467125;26;942;-90
2024/05/03 09:52:19;;;;;;;;;;;21.70;51.60;;;;;;5468047;26;1037;-91
2024/05/03 09:54:44;;;;;;;;;;;21.70;51.00;;;;;;5467935;26;1088;-91
2024/05/03 09:57:09;;;;;;;;;;;21.70;51.10;;;;;;5468762;26;1092;-90
2024/05/03 09:59:35;;;;;;;;;;;21.70;51.00;;;;;;5469656;26;888;-93
2024/05/03 10:02:00;;;;;;;;;;;21.70;50.70;;;;;;5468833;26;1256;-91
2024/05/03 10:04:26;;;;;;;;;;;21.70;51.00;;;;;;5437216;26;1177;-91
2024/05/03 10:06:51;;;;;;;;;;;21.70;50.90;;;;;;5462835;26;1795;-91
2024/05/03 10:09:16;;;;;;;;;;;21.70;50.90;;;;;;5459353;26;890;-91
2024/05/03 10:11:42;;;;;;;;;;;21.70;50.70;;;;;;5427360;26;1176;-91
2024/05/03 10:14:07;;;;;;;;;;;21.70;50.90;;;;;;5458818;26;894;-91
2024/05/03 10:16:33;;;;;;;;;;;21.70;50.90;;;;;;5428428;26;1267;-91
2024/05/03 10:18:58;;;;;;;;;;;21.70;51.00;;;;;;5457272;26;1179;-91
2024/05/03 10:21:24;;;;;;;;;;;21.70;51.30;;;;;;5457731;26;1091;-91
2024/05/03 10:23:49;;;;;;;;;;;21.70;51.30;;;;;;5458326;26;1037;-91
2024/05/03 10:26:14;;;;;;;;;;;21.70;51.30;;;;;;5461354;26;1041;-91
2024/05/03 10:28:40;;;;;;;;;;;21.70;51.50;;;;;;5461707;26;1822;-91
2024/05/03 10:31:05;;;;;;;;;;;21.70;51.30;;;;;;5429578;26;1142;-91
2024/05/03 10:33:30;;;;;;;;;;;21.70;51.30;;;;;;5461478;26;1037;-91
2024/05/03 10:35:56;;;;;;;;;;;21.70;51.20;;;;;;5460417;26;1097;-90
2024/05/03 10:38:21;;;;;;;;;;;21.70;51.30;;;;;;5429423;26;1166;-91
2024/05/03 10:40:47;;;;;;;;;;;21.70;51.30;;;;;;5429346;26;1217;-92
2024/05/03 10:43:12;;;;;;;;;;;21.70;51.30;;;;;;5461741;26;1041;-91
2024/05/03 10:45:37;;;;;;;;;;;21.70;51.10;;;;;;5460641;26;1050;-92
2024/05/03 10:48:03;;;;;;;;;;;21.70;52.00;;;;;;5429083;26;1809;-91
2024/05/03 10:50:28;;;;;;;;;;;21.80;51.40;;;;;;5429431;26;1164;-91
2024/05/03 10:52:54;;;;;;;;;;;21.70;51.20;;;;;;5460658;26;935;-89
2024/05/03 10:55:19;;;;;;;;;;;21.60;51.20;;;;;;5460756;26;918;-91
2024/05/03 10:57:44;;;;;;;;;;;21.70;51.30;;;;;;5461397;26;883;-90
2024/05/03 11:00:10;;;;;;;;;;;21.70;51.20;;;;;;5461400;26;1024;-91
2024/05/03 11:02:35;;;;;;;;;;;21.70;50.70;;;;;;5429136;26;1226;-91
2024/05/03 11:05:00;;;;;;;;;;;21.60;50.00;;;;;;5460626;26;913;-91
2024/05/03 11:07:26;;;;;;;;;;;21.60;50.90;;;;;;5460467;26;1845;-92
2024/05/03 11:09:51;;;;;;;;;;;21.70;50.90;;;;;;5460796;26;914;-91
2024/05/03 11:12:17;;;;;;;;;;;21.70;51.10;;;;;;5460717;26;965;-90
2024/05/03 11:14:42;;;;;;;;;;;21.70;51.00;;;;;;5428665;26;1295;-91
2024/05/03 11:17:08;;;;;;;;;;;21.70;51.00;;;;;;5460394;26;911;-90
2024/05/03 11:19:33;;;;;;;;;;;21.70;50.40;;;;;;5461261;26;1154;-90
2024/05/03 11:21:58;;;;;;;;;;;21.70;50.80;;;;;;5430846;26;1442;-90
2024/05/03 11:24:24;;;;;;;;;;;21.70;50.60;;;;;;5462410;26;873;-90
2024/05/03 11:26:49;;;;;;;;;;;21.80;50.50;;;;;;5461978;26;1813;-90
2024/05/03 11:29:14;;;;;;;;;;;21.70;50.50;;;;;;5470936;26;1072;-91
2024/05/03 11:31:40;;;;;;;;;;;21.70;50.10;;;;;;5466874;26;925;-90
2024/05/03 11:34:05;;;;;;;;;;;21.70;50.20;;;;;;5461933;26;993;-89
2024/05/03 11:36:31;;;;;;;;;;;21.70;50.30;;;;;;5428706;26;1421;-89
2024/05/03 11:38:56;;;;;;;;;;;21.70;50.80;;;;;;5431066;26;1188;-92
2024/05/03 11:41:21;;;;;;;;;;;21.70;51.10;;;;;;5465123;26;1080;-91
2024/05/03 11:43:47;;;;;;;;;;;21.70;51.20;;;;;;5431044;26;1221;-92
2024/05/03 11:46:12;;;;;;;;;;;21.70;50.90;;;;;;5462838;26;1036;-90
2024/05/03 11:48:37;;;;;;;;;;;21.70;50.80;;;;;;5461416;26;1849;-91
2024/05/03 11:51:03;;;;;;;;;;;21.70;50.90;;;;;;5431447;26;1267;-91
2024/05/03 11:53:28;;;;;;;;;;;21.70;51.00;;;;;;5465884;26;1143;-92
2024/05/03 11:55:53;;;;;;;;;;;21.70;51.00;;;;;;5435963;26;1154;-92
2024/05/03 11:58:19;;;;;;;;;;;21.70;51.00;;;;;;5470901;26;854;-92
2024/05/03 12:00:44;;;;;;;;;;;21.80;51.00;;;;;;5449513;26;1355;-87
2024/05/03 12:03:10;;;;;;;;;;;21.70;51.00;;;;;;5449667;26;1250;-91
2024/05/03 12:05:35;;;;;;;;;;;21.80;50.90;;;;;;5480172;26;916;-92
2024/05/03 12:08:00;;;;;;;;;;;21.70;51.00;;;;;;5480172;26;1839;-91
2024/05/03 12:10:26;;;;;;;;;;;21.70;50.90;;;;;;5480215;26;1241;-91
2024/05/03 12:12:51;;;;;;;;;;;21.80;50.90;;;;;;5480067;26;818;-92
2024/05/03 12:15:16;;;;;;;;;;;21.80;51.50;;;;;;5480248;26;849;-92
2024/05/03 12:17:42;;;;;;;;;;;21.70;50.90;;;;;;5479912;26;904;-92
2024/05/03 12:20:07;;;;;;;;;;;21.70;50.80;;;;;;5479786;26;1168;-92
2024/05/03 12:22:32;;;;;;;;;;;21.70;50.80;;;;;;5479729;26;869;-92
2024/05/03 12:24:58;;;;;;;;;;;21.70;51.00;;;;;;5449578;26;1225;-92
2024/05/03 12:27:23;;;;;;;;;;;21.70;50.70;;;;;;5479856;26;1817;-92
2024/05/03 12:29:49;;;;;;;;;;;21.70;50.70;;;;;;5478928;26;1025;-91
2024/05/03 12:32:14;;;;;;;;;;;21.80;50.80;;;;;;5478516;26;1093;-92
2024/05/03 12:34:39;;;;;;;;;;;21.70;50.80;;;;;;5446806;26;1166;-92
2024/05/03 12:37:05;;;;;;;;;;;21.70;50.70;;;;;;5461582;26;922;-92
2024/05/03 12:39:30;;;;;;;;;;;21.70;50.50;;;;;;5459299;26;1116;-90
2024/05/03 12:41:55;;;;;;;;;;;21.70;50.50;;;;;;5458786;26;831;-90
2024/05/03 12:44:21;;;;;;;;;;;21.70;50.70;;;;;;5458585;26;1069;-91
2024/05/03 12:46:46;;;;;;;;;;;21.70;50.70;;;;;;5426536;26;1821;-91
2024/05/03 12:49:11;;;;;;;;;;;21.70;50.60;;;;;;5458068;26;898;-90
2024/05/03 12:51:38;;;;;;;;;;;21.70;50.70;;;;;;5427153;26;1198;-91
2024/05/03 12:54:04;;;;;;;;;;;21.70;50.20;;;;;;5459010;26;945;-91
2024/05/03 12:56:29;;;;;;;;;;;21.70;50.70;;;;;;5461902;26;1091;-91
2024/05/03 12:58:55;;;;;;;;;;;21.70;51.40;;;;;;5462095;26;1029;-91
2024/05/03 13:01:20;;;;;;;;;;;21.70;51.30;;;;;;5428889;26;1274;-91
2024/05/03 13:03:45;;;;;;;;;;;21.70;51.20;;;;;;5459083;26;958;-95
2024/05/03 13:06:11;;;;;;;;;;;21.70;51.00;;;;;;5427894;26;1224;-92
2024/05/03 13:08:36;;;;;;;;;;;21.70;50.90;;;;;;5458988;26;1820;-93
2024/05/03 13:13:46;;;;;;;;;;;21.70;51.00;;;;;;5459733;26;613;-92
2024/05/03 13:16:11;;;;;;;;;;;21.70;51.00;;;;;;5426789;26;1296;-91
2024/05/03 13:18:37;;;;;;;;;;;21.70;51.00;;;;;;5458001;26;1211;-91
2024/05/03 13:21:02;;;;;;;;;;;21.80;51.00;;;;;;5457078;26;949;-93
2024/05/03 13:23:27;;;;;;;;;;;21.70;51.20;;;;;;5426155;26;1245;-92
2024/05/03 13:25:53;;;;;;;;;;;21.60;51.60;;;;;;5456925;26;993;-91
2024/05/03 13:28:18;;;;;;;;;;;21.70;50.70;;;;;;5457765;26;1809;-91
2024/05/03 13:30:44;;;;;;;;;;;21.80;50.90;;;;;;5458130;26;1121;-91
2024/05/03 13:33:09;;;;;;;;;;;21.70;50.80;;;;;;5459583;26;1081;-92
2024/05/03 13:35:34;;;;;;;;;;;21.70;50.60;;;;;;5460026;26;1081;-92
2024/05/03 13:38:00;;;;;;;;;;;21.70;50.70;;;;;;5427485;26;1322;-91
2024/05/03 13:40:25;;;;;;;;;;;21.70;50.50;;;;;;5459595;26;1017;-92
2024/05/03 13:42:50;;;;;;;;;;;21.70;50.70;;;;;;5461347;26;930;-92
2024/05/03 13:45:16;;;;;;;;;;;21.70;50.70;;;;;;5458747;26;934;-92
2024/05/03 13:47:41;;;;;;;;;;;21.70;50.20;;;;;;5458485;26;1801;-92
2024/05/03 13:50:08;;;;;;;;;;;21.70;50.80;;;;;;5426297;26;1336;-92
2024/05/03 13:52:34;;;;;;;;;;;21.70;50.80;;;;;;5426200;26;1296;-92
2024/05/03 13:54:59;;;;;;;;;;;21.70;50.40;;;;;;5459154;26;843;-94
2024/05/03 13:57:25;;;;;;;;;;;21.60;46.80;;;;;;5425972;26;1739;-93
2024/05/03 13:59:50;;;;;;;;;;;21.60;46.80;;;;;;5459379;26;924;-93
2024/05/03 14:02:16;;;;;;;;;;;21.60;47.30;;;;;;5460761;26;1591;-92
2024/05/03 14:04:41;;;;;;;;;;;21.60;47.40;;;;;;5461614;26;1001;-91
2024/05/03 14:07:07;;;;;;;;;;;21.50;47.50;;;;;;5460547;26;1812;-90
2024/05/03 14:09:34;;;;;;;;;;;21.60;49.30;;;;;;5429303;26;1215;-91
2024/05/03 14:11:59;;;;;;;;;;;21.70;48.20;;;;;;5461067;26;870;-91
2024/05/03 14:14:25;;;;;;;;;;;21.60;47.90;;;;;;5429480;26;1335;-92
2024/05/03 14:16:50;;;;;;;;;;;21.60;48.10;;;;;;5429426;26;1260;-92
2024/05/03 14:19:15;;;;;;;;;;;21.60;48.00;;;;;;5429488;26;1248;-92
2024/05/03 14:21:41;;;;;;;;;;;21.60;48.70;;;;;;5461380;26;1132;-93
2024/05/03 14:24:06;;;;;;;;;;;21.70;49.40;;;;;;5429648;26;1287;-92